createdAt,value
2023-09-26T00:00:24.105Z,5.30
2023-09-26T00:03:14.130Z,5.30
2023-09-26T00:05:43.488Z,5.80
2023-09-26T00:08:11.573Z,5.00
2023-09-26T00:10:39.647Z,5.30
2023-09-26T00:13:08.015Z,5.90
2023-09-26T00:15:36.372Z,5.30
2023-09-26T00:18:04.862Z,4.80
2023-09-26T00:20:36.046Z,6.30
2023-09-26T00:23:05.961Z,5.20
2023-09-26T00:25:34.144Z,5.00
2023-09-26T00:28:02.215Z,4.90
2023-09-26T00:30:30.604Z,4.70
2023-09-26T00:32:58.797Z,5.10
2023-09-26T00:35:27.556Z,5.30
2023-09-26T00:37:56.103Z,5.30
2023-09-26T00:40:24.508Z,5.70
2023-09-26T00:42:53.421Z,5.70
2023-09-26T00:45:21.811Z,5.80
2023-09-26T00:47:50.367Z,5.50
2023-09-26T00:50:23.549Z,5.80
2023-09-26T00:52:54.657Z,5.50
2023-09-26T00:55:25.630Z,5.40
2023-09-26T00:57:55.776Z,5.10
2023-09-26T01:00:25.701Z,5.20
2023-09-26T01:02:54.052Z,5.50
2023-09-26T01:05:23.908Z,5.00
2023-09-26T01:07:54.702Z,5.80
2023-09-26T01:10:23.366Z,5.60
2023-09-26T01:12:52.062Z,5.80
2023-09-26T01:15:33.203Z,5.70
2023-09-26T01:18:01.366Z,5.80
2023-09-26T01:20:30.197Z,5.70
2023-09-26T01:22:58.425Z,6.00
2023-09-26T01:25:26.614Z,5.20
2023-09-26T01:27:55.112Z,5.60
2023-09-26T01:30:24.091Z,5.80
2023-09-26T01:32:52.385Z,7.30
2023-09-26T01:35:20.938Z,5.30
2023-09-26T01:37:51.680Z,5.20
2023-09-26T01:40:20.221Z,6.00
2023-09-26T01:42:49.054Z,5.60
2023-09-26T01:45:17.701Z,5.60
2023-09-26T01:47:51.497Z,5.70
2023-09-26T01:50:21.895Z,5.70
2023-09-26T01:52:51.121Z,5.90
2023-09-26T01:55:21.777Z,5.60
2023-09-26T01:57:50.824Z,6.50
2023-09-26T02:00:20.912Z,6.20
2023-09-26T02:02:51.610Z,6.70
2023-09-26T02:05:22.373Z,6.10
2023-09-26T02:07:51.413Z,6.20
2023-09-26T02:10:20.807Z,6.10
2023-09-26T02:12:51.106Z,6.00
2023-09-26T02:15:19.992Z,6.50
2023-09-26T02:17:48.547Z,6.40
2023-09-26T02:20:19.290Z,6.10
2023-09-26T02:22:52.584Z,6.80
2023-09-26T02:25:22.258Z,6.50
2023-09-26T02:27:51.749Z,6.50
2023-09-26T02:30:29.858Z,6.60
2023-09-26T02:32:58.496Z,6.40
2023-09-26T02:35:27.317Z,7.20
2023-09-26T02:37:55.458Z,6.10
2023-09-26T02:40:23.908Z,6.90
2023-09-26T02:42:52.495Z,6.40
2023-09-26T02:45:21.077Z,6.20
2023-09-26T02:47:50.049Z,7.50
2023-09-26T02:50:19.237Z,6.90
2023-09-26T02:52:47.797Z,5.70
2023-09-26T02:55:16.032Z,6.30
2023-09-26T02:57:44.405Z,7.00
2023-09-26T03:00:18.989Z,6.50
2023-09-26T03:02:49.503Z,7.30
2023-09-26T03:05:19.019Z,6.30
2023-09-26T03:07:50.675Z,7.10
2023-09-26T03:10:19.107Z,6.80
2023-09-26T03:12:48.213Z,7.40
2023-09-26T03:15:17.212Z,7.50
2023-09-26T03:17:46.561Z,7.50
2023-09-26T03:20:17.637Z,7.40
2023-09-26T03:22:45.877Z,6.30
2023-09-26T03:25:14.671Z,7.50
2023-09-26T03:27:45.309Z,8.10
2023-09-26T03:30:16.760Z,7.30
2023-09-26T03:32:45.296Z,7.50
2023-09-26T03:35:13.660Z,8.00
2023-09-26T03:37:41.820Z,8.30
2023-09-26T03:40:10.816Z,7.90
2023-09-26T03:42:40.075Z,7.10
2023-09-26T03:45:09.590Z,8.10
2023-09-26T03:47:38.058Z,7.90
2023-09-26T03:50:07.091Z,7.90
2023-09-26T03:52:35.475Z,8.80
2023-09-26T03:55:04.586Z,9.10
2023-09-26T03:57:36.154Z,10.50
2023-09-26T04:00:14.447Z,9.40
2023-09-26T04:02:42.950Z,8.60
2023-09-26T04:05:11.250Z,9.00
2023-09-26T04:07:39.558Z,9.20
2023-09-26T04:10:08.402Z,8.70
2023-09-26T04:12:36.507Z,9.00
2023-09-26T04:15:05.364Z,8.80
2023-09-26T04:17:33.482Z,9.90
2023-09-26T04:20:01.625Z,10.10
2023-09-26T04:22:30.616Z,13.00
2023-09-26T04:24:58.963Z,10.20
2023-09-26T04:27:27.943Z,11.10
2023-09-26T04:29:56.087Z,9.90
2023-09-26T04:32:24.465Z,9.50
2023-09-26T04:34:54.249Z,11.20
2023-09-26T04:37:22.619Z,11.60
2023-09-26T04:39:50.839Z,11.40
2023-09-26T04:42:19.335Z,12.20
2023-09-26T04:44:47.616Z,10.60
2023-09-26T04:47:16.860Z,12.10
2023-09-26T04:49:45.768Z,11.30
2023-09-26T04:52:14.030Z,12.20
2023-09-26T04:54:42.529Z,12.70
2023-09-26T04:57:10.657Z,11.80
2023-09-26T04:59:39.007Z,14.00
2023-09-26T05:02:07.217Z,14.00
2023-09-26T05:04:35.509Z,16.00
2023-09-26T05:07:03.788Z,16.30
2023-09-26T05:09:31.981Z,15.60
2023-09-26T05:12:00.268Z,17.10
2023-09-26T05:14:28.564Z,16.10
2023-09-26T05:16:56.684Z,16.10
2023-09-26T05:19:24.921Z,16.40
2023-09-26T05:21:53.112Z,15.40
2023-09-26T05:24:23.462Z,16.60
2023-09-26T05:26:51.992Z,17.00
2023-09-26T05:29:20.881Z,15.20
2023-09-26T05:31:49.363Z,17.40
2023-09-26T05:34:17.734Z,17.10
2023-09-26T05:36:45.840Z,16.90
2023-09-26T05:39:13.934Z,18.40
2023-09-26T05:41:42.036Z,16.60
2023-09-26T05:44:13.360Z,17.60
2023-09-26T05:46:41.645Z,16.50
2023-09-26T05:49:09.928Z,16.70
2023-09-26T05:51:38.320Z,16.50
2023-09-26T05:54:17.743Z,15.80
2023-09-26T05:56:54.117Z,17.40
2023-09-26T05:59:22.470Z,17.40
2023-09-26T06:01:50.713Z,16.20
2023-09-26T06:04:19.320Z,17.00
2023-09-26T06:06:47.934Z,16.50
2023-09-26T06:09:16.200Z,17.10
2023-09-26T06:11:44.374Z,15.60
2023-09-26T06:14:12.713Z,16.80
2023-09-26T06:16:40.941Z,17.50
2023-09-26T06:19:09.340Z,15.10
2023-09-26T06:21:37.509Z,15.50
2023-09-26T06:24:07.789Z,16.20
2023-09-26T06:26:36.020Z,15.40
2023-09-26T06:29:04.253Z,15.50
2023-09-26T06:31:32.536Z,16.50
2023-09-26T06:34:02.479Z,14.40
2023-09-26T06:36:33.079Z,20.80
2023-09-26T06:39:01.413Z,16.30
2023-09-26T06:41:29.890Z,14.90
2023-09-26T06:43:58.204Z,13.90
2023-09-26T06:46:26.676Z,14.40
2023-09-26T06:48:55.559Z,13.10
2023-09-26T06:51:24.258Z,18.20
2023-09-26T06:53:52.914Z,14.40
2023-09-26T06:56:21.484Z,14.30
2023-09-26T06:58:50.295Z,15.70
2023-09-26T07:01:20.052Z,14.30
2023-09-26T07:03:48.439Z,14.90
2023-09-26T07:06:17.265Z,14.70
2023-09-26T07:08:45.960Z,17.30
2023-09-26T07:11:14.558Z,16.30
2023-09-26T07:16:13.955Z,15.80
2023-09-26T07:18:42.269Z,15.90
2023-09-26T07:21:11.119Z,15.10
2023-09-26T07:23:39.625Z,14.90
2023-09-26T07:26:15.880Z,17.40
2023-09-26T07:28:46.341Z,16.10
2023-09-26T07:31:16.949Z,15.40
2023-09-26T07:33:46.081Z,14.50
2023-09-26T07:36:14.654Z,13.70
2023-09-26T07:38:43.062Z,14.70
2023-09-26T07:41:11.421Z,13.80
2023-09-26T07:43:40.960Z,12.90
2023-09-26T07:46:11.265Z,14.20
2023-09-26T07:48:40.307Z,14.10
2023-09-26T07:51:12.763Z,14.70
2023-09-26T07:53:42.086Z,14.10
2023-09-26T07:56:11.595Z,13.80
2023-09-26T07:58:39.914Z,13.80
2023-09-26T08:01:09.737Z,13.10
2023-09-26T08:03:42.318Z,13.00
2023-09-26T08:06:11.235Z,12.10
2023-09-26T08:08:39.443Z,12.90
2023-09-26T08:11:12.295Z,12.90
2023-09-26T08:13:41.050Z,13.00
2023-09-26T08:16:10.583Z,13.30
2023-09-26T08:18:39.192Z,12.80
2023-09-26T08:21:07.750Z,11.40
2023-09-26T08:23:36.909Z,12.90
2023-09-26T08:26:12.109Z,11.50
2023-09-26T08:28:41.044Z,11.90
2023-09-26T08:31:16.099Z,11.90
2023-09-26T08:33:45.480Z,13.30
2023-09-26T08:36:18.400Z,11.40
2023-09-26T08:38:51.975Z,11.20
2023-09-26T08:43:49.786Z,11.50
2023-09-26T08:46:18.605Z,10.60
2023-09-26T08:48:48.888Z,11.20
2023-09-26T08:51:17.257Z,10.50
2023-09-26T08:53:45.438Z,10.40
2023-09-26T08:56:14.192Z,9.70
2023-09-26T08:58:44.200Z,10.00
2023-09-26T09:01:12.788Z,9.60
2023-09-26T09:03:40.950Z,9.00
2023-09-26T09:06:10.254Z,7.90
2023-09-26T09:08:38.385Z,9.30
2023-09-26T09:11:06.615Z,9.60
2023-09-26T09:13:43.848Z,8.50
2023-09-26T09:16:17.305Z,8.20
2023-09-26T09:18:53.546Z,8.20
2023-09-26T09:21:35.815Z,7.50
2023-09-26T09:24:07.395Z,7.30
2023-09-26T09:26:37.649Z,7.30
2023-09-26T09:29:22.888Z,8.80
2023-09-26T09:31:52.543Z,7.20
2023-09-26T09:34:25.381Z,7.10
2023-09-26T09:36:57.655Z,6.60
2023-09-26T09:39:26.124Z,6.30
2023-09-26T09:42:02.233Z,5.30
2023-09-26T09:44:32.307Z,4.60
2023-09-26T09:47:04.458Z,3.90
2023-09-26T09:49:33.874Z,4.30
2023-09-26T09:52:06.332Z,5.30
2023-09-26T09:57:11.270Z,4.60
2023-09-26T09:59:39.786Z,4.20
2023-09-26T10:02:11.443Z,4.00
2023-09-26T10:04:40.930Z,3.40
2023-09-26T10:07:11.109Z,3.80
2023-09-26T10:09:40.740Z,3.20
2023-09-26T10:12:10.984Z,4.60
2023-09-26T10:14:39.309Z,3.60
2023-09-26T10:17:07.985Z,3.50
2023-09-26T10:19:50.834Z,4.00
2023-09-26T10:22:33.620Z,3.50
2023-09-26T10:25:03.662Z,3.20
2023-09-26T10:30:05.108Z,4.40
2023-09-26T10:32:39.924Z,3.50
2023-09-26T10:35:15.757Z,3.80
2023-09-26T10:37:51.006Z,3.00
2023-09-26T10:40:19.913Z,3.20
2023-09-26T10:45:21.565Z,3.60
2023-09-26T10:48:05.398Z,3.30
2023-09-26T10:50:38.601Z,3.30
2023-09-26T10:53:07.232Z,3.80
2023-09-26T10:55:36.261Z,2.80
2023-09-26T10:58:05.454Z,3.30
2023-09-26T11:00:33.647Z,2.40
2023-09-26T11:08:40.040Z,2.70
2023-09-26T11:11:09.409Z,3.20
2023-09-26T11:13:38.130Z,3.70
2023-09-26T11:16:07.944Z,3.70
2023-09-26T11:18:36.438Z,2.80
2023-09-26T11:21:26.278Z,3.00
2023-09-26T11:23:53.075Z,2.50
2023-09-26T11:26:22.515Z,2.90
2023-09-26T11:28:50.827Z,2.40
2023-09-26T11:31:19.488Z,3.00
2023-09-26T11:33:48.127Z,3.10
2023-09-26T11:36:17.026Z,3.20
2023-09-26T11:38:50.267Z,2.70
2023-09-26T11:41:26.769Z,2.50
2023-09-26T11:44:15.300Z,5.10
2023-09-26T11:46:49.455Z,3.10
2023-09-26T11:49:20.370Z,3.40
2023-09-26T11:51:53.994Z,3.30
2023-09-26T11:54:23.478Z,3.20
2023-09-26T11:56:53.541Z,3.00
2023-09-26T11:59:21.863Z,3.60
2023-09-26T12:01:50.562Z,3.00
2023-09-26T12:04:18.865Z,3.80
2023-09-26T12:06:47.270Z,3.80
2023-09-26T12:09:22.406Z,3.50
2023-09-26T12:11:52.992Z,3.30
2023-09-26T12:14:21.577Z,3.60
2023-09-26T12:16:53.836Z,2.80
2023-09-26T12:19:24.086Z,3.50
2023-09-26T12:21:52.658Z,3.30
2023-09-26T12:24:20.901Z,3.00
2023-09-26T12:26:49.281Z,3.40
2023-09-26T12:29:17.915Z,3.20
2023-09-26T12:31:46.418Z,2.80
2023-09-26T12:34:16.249Z,3.30
2023-09-26T12:36:44.772Z,2.80
2023-09-26T12:39:13.154Z,3.00
2023-09-26T12:41:41.665Z,2.90
2023-09-26T12:44:11.617Z,2.90
2023-09-26T12:46:40.768Z,3.20
2023-09-26T12:49:10.691Z,2.20
2023-09-26T12:51:39.176Z,2.70
2023-09-26T12:54:07.873Z,3.00
2023-09-26T12:56:36.373Z,3.00
2023-09-26T12:59:06.255Z,3.10
2023-09-26T13:01:35.761Z,2.60
2023-09-26T13:04:04.775Z,3.00
2023-09-26T13:06:33.538Z,2.90
2023-09-26T13:09:01.750Z,2.40
2023-09-26T13:11:30.821Z,2.20
2023-09-26T13:13:58.997Z,2.20
2023-09-26T13:16:27.686Z,2.70
2023-09-26T13:18:57.541Z,3.30
2023-09-26T13:21:28.466Z,2.50
2023-09-26T13:23:57.459Z,2.30
2023-09-26T13:26:25.920Z,2.50
2023-09-26T13:28:53.990Z,2.40
2023-09-26T13:31:22.448Z,3.60
2023-09-26T13:33:50.851Z,2.50
2023-09-26T13:36:19.030Z,2.50
2023-09-26T13:38:47.336Z,2.10
2023-09-26T13:41:15.534Z,2.40
2023-09-26T13:43:43.774Z,2.50
2023-09-26T13:46:12.195Z,3.00
2023-09-26T13:48:40.777Z,3.00
2023-09-26T13:51:09.462Z,3.30
2023-09-26T13:53:39.350Z,3.90
2023-09-26T13:56:07.771Z,3.00
2023-09-26T13:58:36.759Z,3.40
2023-09-26T14:01:05.903Z,4.00
2023-09-26T14:03:34.081Z,4.50
2023-09-26T14:06:02.786Z,3.40
2023-09-26T14:08:31.303Z,3.40
2023-09-26T14:10:59.801Z,3.40
2023-09-26T14:13:28.484Z,3.50
2023-09-26T14:15:56.577Z,3.40
2023-09-26T14:18:24.721Z,4.10
2023-09-26T14:20:53.416Z,3.60
2023-09-26T14:23:26.571Z,4.50
2023-09-26T14:25:57.675Z,4.30
2023-09-26T14:30:54.928Z,3.80
2023-09-26T14:33:23.723Z,4.40
2023-09-26T14:35:52.438Z,4.00
2023-09-26T14:38:21.128Z,3.60
2023-09-26T14:40:49.380Z,5.30
2023-09-26T14:43:18.157Z,4.20
2023-09-26T14:45:52.856Z,3.80
2023-09-26T14:48:22.561Z,4.30
2023-09-26T14:50:51.128Z,4.50
2023-09-26T14:53:19.850Z,4.60
2023-09-26T14:55:49.191Z,4.10
2023-09-26T14:58:17.389Z,4.80
2023-09-26T15:00:50.164Z,4.40
2023-09-26T15:03:18.713Z,3.60
2023-09-26T15:05:49.075Z,3.90
2023-09-26T15:08:17.747Z,4.40
2023-09-26T15:10:46.061Z,4.20
2023-09-26T15:13:14.286Z,4.10
2023-09-26T15:15:42.338Z,4.70
2023-09-26T15:18:10.875Z,4.30
2023-09-26T15:20:41.398Z,5.50
2023-09-26T15:23:11.704Z,4.80
2023-09-26T15:25:40.193Z,6.30
2023-09-26T15:28:11.471Z,4.90
2023-09-26T15:30:39.544Z,4.70
2023-09-26T15:33:08.728Z,5.30
2023-09-26T15:35:40.502Z,5.20
2023-09-26T15:38:10.629Z,4.80
2023-09-26T15:40:39.294Z,7.30
2023-09-26T15:43:08.381Z,7.70
2023-09-26T15:45:36.743Z,10.80
2023-09-26T15:48:05.668Z,4.80
2023-09-26T15:50:33.865Z,6.80
2023-09-26T15:53:02.694Z,7.30
2023-09-26T15:55:31.150Z,5.00
2023-09-26T15:58:00.002Z,5.10
2023-09-26T16:00:30.286Z,5.40
2023-09-26T16:02:58.503Z,7.60
2023-09-26T16:05:27.182Z,5.70
2023-09-26T16:07:55.629Z,5.40
2023-09-26T16:10:24.540Z,5.70
2023-09-26T16:13:06.999Z,5.50
2023-09-26T16:15:38.549Z,5.70
2023-09-26T16:18:07.713Z,6.60
2023-09-26T16:20:37.204Z,6.70
2023-09-26T16:23:06.392Z,6.40
2023-09-26T16:25:34.848Z,6.70
2023-09-26T16:28:03.251Z,5.50
2023-09-26T16:30:33.735Z,6.20
2023-09-26T16:33:02.630Z,5.10
2023-09-26T16:35:31.224Z,5.80
2023-09-26T16:37:59.668Z,5.70
2023-09-26T16:40:27.821Z,5.30
2023-09-26T16:42:56.272Z,5.20
2023-09-26T16:45:24.975Z,5.20
2023-09-26T16:47:54.339Z,5.70
2023-09-26T16:50:22.788Z,5.40
2023-09-26T16:52:51.572Z,6.50
2023-09-26T16:55:19.720Z,6.60
2023-09-26T16:57:48.082Z,7.20
2023-09-26T17:00:17.310Z,5.60
2023-09-26T17:02:45.494Z,5.70
2023-09-26T17:05:15.685Z,6.90
2023-09-26T17:07:46.087Z,7.10
2023-09-26T17:10:14.465Z,7.30
2023-09-26T17:12:42.740Z,9.40
2023-09-26T17:15:11.067Z,10.60
2023-09-26T17:17:42.269Z,8.90
2023-09-26T17:20:11.266Z,10.20
2023-09-26T17:22:39.624Z,8.70
2023-09-26T17:25:08.847Z,8.10
2023-09-26T17:27:37.763Z,8.20
2023-09-26T17:30:07.296Z,8.00
2023-09-26T17:32:37.177Z,8.60
2023-09-26T17:35:08.014Z,7.40
2023-09-26T17:37:36.362Z,7.80
2023-09-26T17:40:05.283Z,6.90
2023-09-26T17:42:33.897Z,8.80
2023-09-26T17:45:04.168Z,8.70
2023-09-26T17:47:32.467Z,7.60
2023-09-26T17:50:01.197Z,7.40
2023-09-26T17:52:30.355Z,7.70
2023-09-26T17:54:58.683Z,7.20
2023-09-26T17:57:26.860Z,8.30
2023-09-26T17:59:55.964Z,11.20
2023-09-26T18:02:24.313Z,9.50
2023-09-26T18:04:58.188Z,8.60
2023-09-26T18:07:26.652Z,7.70
2023-09-26T18:09:55.032Z,8.80
2023-09-26T18:12:23.071Z,8.30
2023-09-26T18:14:51.118Z,6.80
2023-09-26T18:17:19.654Z,7.30
2023-09-26T18:19:47.988Z,7.50
2023-09-26T18:22:16.087Z,6.60
2023-09-26T18:24:44.830Z,6.70
2023-09-26T18:27:12.912Z,7.10
2023-09-26T18:29:40.967Z,7.30
2023-09-26T18:32:09.088Z,7.00
2023-09-26T18:34:40.484Z,7.50
2023-09-26T18:37:11.490Z,7.50
2023-09-26T18:42:13.195Z,6.40
2023-09-26T18:44:42.048Z,6.50
2023-09-26T18:47:10.693Z,7.50
2023-09-26T18:49:39.020Z,7.60
2023-09-26T18:52:07.255Z,6.90
2023-09-26T18:54:35.586Z,6.60
2023-09-26T18:57:03.800Z,6.90
2023-09-26T18:59:37.248Z,7.00
2023-09-26T19:02:11.413Z,6.90
2023-09-26T19:04:40.412Z,7.60
2023-09-26T19:07:08.804Z,7.00
2023-09-26T19:09:38.297Z,6.80
2023-09-26T19:12:07.113Z,6.40
2023-09-26T19:14:37.895Z,6.80
2023-09-26T19:17:06.242Z,7.30
2023-09-26T19:19:34.520Z,6.40
2023-09-26T19:22:02.776Z,6.70
2023-09-26T19:24:33.481Z,7.20
2023-09-26T19:27:02.307Z,6.50
2023-09-26T19:29:30.437Z,6.40
2023-09-26T19:32:00.149Z,6.80
2023-09-26T19:34:28.579Z,7.10
2023-09-26T19:36:56.920Z,7.30
2023-09-26T19:39:26.664Z,6.70
2023-09-26T19:41:55.053Z,6.60
2023-09-26T19:44:23.906Z,6.60
2023-09-26T19:46:52.532Z,7.00
2023-09-26T19:49:21.215Z,7.40
2023-09-26T19:51:50.258Z,7.10
2023-09-26T19:54:18.836Z,6.30
2023-09-26T19:56:47.101Z,6.80
2023-09-26T19:59:15.576Z,6.00
2023-09-26T20:01:43.900Z,7.20
2023-09-26T20:04:12.220Z,6.70
2023-09-26T20:06:40.832Z,7.10
2023-09-26T20:09:10.080Z,6.50
2023-09-26T20:11:38.704Z,7.10
2023-09-26T20:14:07.261Z,6.30
2023-09-26T20:16:35.565Z,6.70
2023-09-26T20:19:04.218Z,5.80
2023-09-26T20:21:32.322Z,6.20
2023-09-26T20:24:00.979Z,6.40
2023-09-26T20:26:29.495Z,5.90
2023-09-26T20:28:58.038Z,6.20
2023-09-26T20:31:26.410Z,6.70
2023-09-26T20:33:54.836Z,6.20
2023-09-26T20:36:23.386Z,6.30
2023-09-26T20:38:52.252Z,6.50
2023-09-26T20:41:20.777Z,5.80
2023-09-26T20:43:49.081Z,5.60
2023-09-26T20:46:17.554Z,6.00
2023-09-26T20:48:47.138Z,5.80
2023-09-26T20:51:15.749Z,5.90
2023-09-26T20:53:43.794Z,5.70
2023-09-26T20:56:12.081Z,6.30
2023-09-26T20:58:40.402Z,5.60
2023-09-26T21:01:10.005Z,6.30
2023-09-26T21:03:39.339Z,5.40
2023-09-26T21:06:15.852Z,5.70
2023-09-26T21:08:44.594Z,6.20
2023-09-26T21:11:13.009Z,6.20
2023-09-26T21:13:41.230Z,6.40
2023-09-26T21:16:15.447Z,6.10
2023-09-26T21:18:46.140Z,6.10
2023-09-26T21:21:32.782Z,5.50
2023-09-26T21:24:01.201Z,5.70
2023-09-26T21:26:29.573Z,6.60
2023-09-26T21:28:58.057Z,5.90
2023-09-26T21:31:26.593Z,6.50
2023-09-26T21:33:55.033Z,5.90
2023-09-26T21:36:24.112Z,5.40
2023-09-26T21:38:53.522Z,5.50
2023-09-26T21:41:22.299Z,6.10
2023-09-26T21:43:50.479Z,5.10
2023-09-26T21:46:18.963Z,7.40
2023-09-26T21:48:47.828Z,5.10
2023-09-26T21:51:16.368Z,5.70
2023-09-26T21:53:44.759Z,5.60
2023-09-26T21:56:13.256Z,5.50
2023-09-26T21:58:41.523Z,6.10
2023-09-26T22:01:12.666Z,5.60
2023-09-26T22:03:41.504Z,6.50
2023-09-26T22:06:11.462Z,5.90
2023-09-26T22:08:39.582Z,6.00
2023-09-26T22:11:08.682Z,5.20
2023-09-26T22:13:36.921Z,6.60
2023-09-26T22:16:05.150Z,6.40
2023-09-26T22:18:33.758Z,6.90
2023-09-26T22:21:02.256Z,5.60
2023-09-26T22:23:32.372Z,6.40
2023-09-26T22:26:01.040Z,6.00
2023-09-26T22:28:29.954Z,6.20
2023-09-26T22:30:58.021Z,6.00
2023-09-26T22:33:27.083Z,5.10
2023-09-26T22:35:55.701Z,5.80
2023-09-26T22:38:24.030Z,5.40
2023-09-26T22:40:53.066Z,6.50
2023-09-26T22:43:21.602Z,6.20
2023-09-26T22:45:49.882Z,5.60
2023-09-26T22:48:18.369Z,5.20
2023-09-26T22:50:48.540Z,5.50
2023-09-26T22:53:16.890Z,6.30
2023-09-26T22:55:50.966Z,5.70
2023-09-26T22:58:20.122Z,5.20
2023-09-26T23:00:48.486Z,5.70
2023-09-26T23:03:17.213Z,5.60
2023-09-26T23:05:45.836Z,6.00
2023-09-26T23:08:14.028Z,6.40
2023-09-26T23:10:42.478Z,5.30
2023-09-26T23:13:10.889Z,6.70
2023-09-26T23:15:39.013Z,4.50
2023-09-26T23:18:07.202Z,4.90
2023-09-26T23:20:41.160Z,5.80
2023-09-26T23:23:09.856Z,5.40
2023-09-26T23:25:38.065Z,6.00
2023-09-26T23:28:06.862Z,5.40
2023-09-26T23:30:35.283Z,5.80
2023-09-26T23:33:03.991Z,6.50
2023-09-26T23:35:32.940Z,6.20
2023-09-26T23:38:01.037Z,5.70
2023-09-26T23:40:29.322Z,5.70
2023-09-26T23:42:58.275Z,5.90
2023-09-26T23:45:26.804Z,7.00
2023-09-26T23:47:55.090Z,6.50
2023-09-26T23:50:24.251Z,6.80
2023-09-26T23:52:52.654Z,7.60
2023-09-26T23:55:20.840Z,7.70
2023-09-26T23:57:48.912Z,6.50
